Time;durP1;ratioP1;P1;durP2;ratioP2;P2;SDS_P1;SDS_P2;PMS_P1;PMS_P2;Temp;Humidity;BMP_temperature;BMP_pressure;BME280_temperature;BME280_humidity;BME280_pressure;Samples;Min_cycle;Max_cycle;Signal;HPM_P1;HPM_P2
2023/03/16 00:01:08;;;;;;;5.03;1.50;;;3.40;99.90;;;;;;5008278;28;20201;-67
2023/03/16 00:03:35;;;;;;;2.13;1.67;;;3.30;99.90;;;;;;5008334;28;20701;-67
2023/03/16 00:06:02;;;;;;;3.60;1.20;;;3.30;99.90;;;;;;5007995;28;20209;-67
2023/03/16 00:08:29;;;;;;;4.23;1.73;;;3.30;99.90;;;;;;5007694;28;20623;-67
2023/03/16 00:10:57;;;;;;;1.80;1.40;;;3.30;99.90;;;;;;5007885;28;20331;-67
2023/03/16 00:13:25;;;;;;;3.60;1.57;;;3.30;99.90;;;;;;5008222;28;20245;-67
2023/03/16 00:15:53;;;;;;;1.53;1.33;;;3.30;99.90;;;;;;5007649;28;20253;-67
2023/03/16 00:18:20;;;;;;;1.80;1.30;;;3.30;99.90;;;;;;5007030;28;20308;-67
2023/03/16 00:20:51;;;;;;;2.50;1.30;;;3.20;99.90;;;;;;5007641;28;20237;-67
2023/03/16 00:23:18;;;;;;;3.87;1.67;;;3.20;99.90;;;;;;5007803;28;20225;-67
2023/03/16 00:25:45;;;;;;;2.30;1.70;;;3.20;99.90;;;;;;5007701;28;20216;-67
2023/03/16 00:28:13;;;;;;;2.00;1.60;;;3.20;99.90;;;;;;5007425;28;20323;-67
2023/03/16 00:30:40;;;;;;;4.80;1.60;;;3.20;99.90;;;;;;5007782;28;20655;-69
2023/03/16 00:33:07;;;;;;;2.90;1.43;;;3.10;99.90;;;;;;5007276;28;20651;-69
2023/03/16 00:35:34;;;;;;;3.03;1.50;;;3.10;99.90;;;;;;5007534;28;20775;-68
2023/03/16 00:38:01;;;;;;;1.80;1.27;;;2.90;99.90;;;;;;5007664;28;20304;-69
2023/03/16 00:40:29;;;;;;;3.30;1.50;;;2.80;99.90;;;;;;5007676;28;20316;-68
2023/03/16 00:42:56;;;;;;;5.10;1.70;;;2.60;99.90;;;;;;5007131;28;20287;-69
2023/03/16 00:45:24;;;;;;;4.30;1.53;;;2.50;99.90;;;;;;5007214;28;20324;-68
2023/03/16 00:47:53;;;;;;;1.83;1.57;;;2.50;99.90;;;;;;5007132;28;20229;-69
2023/03/16 00:50:21;;;;;;;2.83;1.40;;;2.50;99.90;;;;;;5007531;28;20267;-69
2023/03/16 00:52:47;;;;;;;1.67;1.33;;;2.40;99.90;;;;;;5007056;28;20671;-69
2023/03/16 00:55:14;;;;;;;1.60;1.50;;;2.30;99.90;;;;;;5007199;28;20201;-69
2023/03/16 00:57:41;;;;;;;3.20;1.83;;;2.30;99.90;;;;;;5006935;28;20241;-69
2023/03/16 01:00:12;;;;;;;2.57;1.47;;;2.30;99.90;;;;;;5006930;28;20206;-69
2023/03/16 01:02:41;;;;;;;6.10;1.60;;;2.30;99.90;;;;;;5006804;28;20277;-69
2023/03/16 01:05:09;;;;;;;3.40;1.53;;;2.20;99.90;;;;;;5007031;28;20966;-69
2023/03/16 01:07:35;;;;;;;1.97;1.83;;;2.20;99.90;;;;;;5007055;28;20229;-69
2023/03/16 01:10:03;;;;;;;5.70;1.83;;;2.20;99.90;;;;;;5006444;28;20243;-69
2023/03/16 01:12:30;;;;;;;3.97;1.53;;;2.30;99.90;;;;;;4992159;28;20248;-69
2023/03/16 01:14:57;;;;;;;2.97;1.70;;;2.20;99.90;;;;;;4998269;28;20305;-69
2023/03/16 01:17:24;;;;;;;3.10;1.43;;;2.40;99.90;;;;;;5007036;28;20385;-69
2023/03/16 01:19:52;;;;;;;2.40;1.43;;;2.50;99.90;;;;;;5006982;28;20285;-67
2023/03/16 01:22:20;;;;;;;1.43;1.33;;;2.50;99.90;;;;;;5006887;28;20208;-68
2023/03/16 01:24:47;;;;;;;4.07;2.07;;;2.50;99.90;;;;;;5007006;28;20212;-68
2023/03/16 01:27:14;;;;;;;3.50;1.30;;;2.50;99.90;;;;;;5007007;28;20246;-68
2023/03/16 01:29:43;;;;;;;3.20;1.30;;;2.50;99.90;;;;;;5006670;28;20553;-72
2023/03/16 01:32:10;;;;;;;2.37;1.50;;;2.60;99.90;;;;;;5007151;28;20208;-67
2023/03/16 01:34:37;;;;;;;2.40;1.70;;;2.60;99.90;;;;;;5006988;28;20207;-68
2023/03/16 01:37:06;;;;;;;2.03;1.20;;;2.60;99.90;;;;;;5006594;28;20301;-67
2023/03/16 01:39:33;;;;;;;2.93;1.43;;;2.60;99.90;;;;;;5006957;28;20292;-68
2023/03/16 01:42:00;;;;;;;1.60;1.10;;;2.60;99.90;;;;;;5004315;28;20212;-68
2023/03/16 01:44:29;;;;;;;2.97;1.70;;;2.70;99.90;;;;;;5006782;28;20213;-68
2023/03/16 01:46:56;;;;;;;3.73;1.40;;;2.70;99.90;;;;;;5006640;28;20687;-68
2023/03/16 01:49:27;;;;;;;1.80;1.20;;;2.70;99.90;;;;;;5006783;28;20300;-68
2023/03/16 01:51:58;;;;;;;2.43;1.30;;;2.70;99.90;;;;;;5006450;28;20687;-68
2023/03/16 01:54:29;;;;;;;3.13;1.37;;;2.70;99.90;;;;;;5006431;28;20663;-68
2023/03/16 01:57:00;;;;;;;1.83;1.37;;;2.60;99.90;;;;;;5006404;28;20228;-67
2023/03/16 01:59:31;;;;;;;3.77;1.63;;;2.70;99.90;;;;;;5006548;28;20221;-67
2023/03/16 02:01:58;;;;;;;1.77;1.30;;;2.60;99.90;;;;;;5006420;28;20237;-67
2023/03/16 02:04:46;;;;;;;5.60;1.70;;;2.60;99.90;;;;;;5006270;28;20201;-67
2023/03/16 02:07:15;;;;;;;2.83;1.40;;;2.50;99.90;;;;;;5006381;28;20720;-67
2023/03/16 02:09:46;;;;;;;4.47;1.43;;;2.50;99.90;;;;;;5005845;28;20233;-67
2023/03/16 02:12:17;;;;;;;3.73;1.40;;;2.40;99.90;;;;;;5005928;28;20214;-68
2023/03/16 02:14:44;;;;;;;2.27;1.33;;;2.50;99.90;;;;;;5005970;28;20201;-68
2023/03/16 02:17:11;;;;;;;3.27;1.50;;;2.50;99.90;;;;;;5006214;28;20216;-68
2023/03/16 02:19:51;;;;;;;3.57;1.50;;;2.30;99.90;;;;;;5006411;28;20224;-69
2023/03/16 02:22:18;;;;;;;3.53;1.30;;;2.20;99.90;;;;;;5007340;28;20204;-70
2023/03/16 02:24:46;;;;;;;3.57;1.30;;;2.30;99.90;;;;;;5010277;28;20309;-67
2023/03/16 02:27:25;;;;;;;5.77;1.30;;;2.20;99.90;;;;;;5009815;28;20284;-67
2023/03/16 02:30:02;;;;;;;1.67;1.20;;;2.20;99.90;;;;;;5009583;28;20296;-67
2023/03/16 02:32:32;;;;;;;4.37;1.50;;;2.20;99.90;;;;;;5009822;28;20204;-67
2023/03/16 02:35:00;;;;;;;3.73;1.40;;;2.20;99.90;;;;;;5010175;28;20235;-67
2023/03/16 02:37:27;;;;;;;3.13;1.73;;;2.30;99.90;;;;;;5014749;28;20240;-67
2023/03/16 02:39:54;;;;;;;2.03;1.20;;;2.30;99.90;;;;;;5009989;28;20526;-67
2023/03/16 02:42:25;;;;;;;3.03;1.40;;;2.40;99.90;;;;;;5009626;28;20764;-67
2023/03/16 02:44:56;;;;;;;2.17;1.50;;;2.50;99.90;;;;;;5009740;28;20289;-67
2023/03/16 02:47:32;;;;;;;1.23;1.13;;;2.50;99.90;;;;;;5010063;28;20576;-67
2023/03/16 02:49:59;;;;;;;2.53;1.27;;;2.60;99.90;;;;;;5009584;28;20204;-68
2023/03/16 02:52:27;;;;;;;3.27;1.40;;;2.60;99.90;;;;;;5009404;28;20302;-67
2023/03/16 02:54:53;;;;;;;1.97;1.10;;;2.60;99.90;;;;;;5009582;28;20308;-67
2023/03/16 02:57:21;;;;;;;1.20;1.07;;;2.60;99.90;;;;;;5009468;28;20256;-67
2023/03/16 02:59:47;;;;;;;2.20;1.20;;;2.60;99.90;;;;;;5009001;28;20213;-67
2023/03/16 03:02:16;;;;;;;3.60;1.30;;;2.50;99.90;;;;;;5009785;28;20300;-67
2023/03/16 03:04:45;;;;;;;7.40;1.30;;;2.40;99.90;;;;;;5008908;28;20219;-67
2023/03/16 03:07:13;;;;;;;4.07;1.47;;;2.30;99.90;;;;;;5009349;28;20205;-67
2023/03/16 03:09:40;;;;;;;5.00;1.63;;;2.20;99.90;;;;;;5008869;28;20246;-67
2023/03/16 03:12:08;;;;;;;4.27;1.60;;;2.10;99.90;;;;;;4997435;28;20225;-67
2023/03/16 03:14:36;;;;;;;2.70;1.63;;;2.00;99.90;;;;;;4998621;28;20217;-67
2023/03/16 03:17:04;;;;;;;1.90;1.47;;;2.00;99.90;;;;;;5009222;28;20267;-67
2023/03/16 03:19:32;;;;;;;4.33;1.20;;;2.10;99.90;;;;;;5008748;28;20305;-68
2023/03/16 03:21:59;;;;;;;3.77;1.40;;;2.10;99.90;;;;;;5008435;28;20216;-67
2023/03/16 03:24:26;;;;;;;3.53;1.60;;;2.10;99.90;;;;;;5009057;28;20334;-68
2023/03/16 03:26:53;;;;;;;1.87;1.20;;;2.10;99.90;;;;;;5009072;28;20205;-68
2023/03/16 03:29:20;;;;;;;4.63;1.50;;;2.10;99.90;;;;;;5007932;28;20319;-68
2023/03/16 03:31:47;;;;;;;3.30;1.50;;;2.20;99.90;;;;;;5006928;28;20221;-68
2023/03/16 03:34:14;;;;;;;4.23;1.40;;;2.20;99.90;;;;;;5006087;28;20283;-68
2023/03/16 03:36:42;;;;;;;2.10;1.43;;;2.30;99.90;;;;;;5013745;28;20320;-68
2023/03/16 03:39:09;;;;;;;1.60;1.10;;;2.30;99.90;;;;;;5026270;28;20574;-68
2023/03/16 03:41:36;;;;;;;1.73;1.23;;;2.30;99.90;;;;;;5008982;28;20232;-69
2023/03/16 03:44:04;;;;;;;2.03;1.07;;;2.30;99.90;;;;;;5006597;28;20292;-68
2023/03/16 03:46:31;;;;;;;2.03;1.00;;;2.30;99.90;;;;;;5007037;28;20212;-68
2023/03/16 03:49:02;;;;;;;1.63;1.30;;;2.40;99.90;;;;;;5006492;28;20240;-68
2023/03/16 03:51:29;;;;;;;3.60;1.50;;;2.30;99.90;;;;;;5006772;28;20201;-68
2023/03/16 03:53:58;;;;;;;3.00;1.70;;;2.30;99.90;;;;;;5006291;28;20212;-68
2023/03/16 03:56:25;;;;;;;6.00;1.70;;;2.30;99.90;;;;;;5006467;28;20551;-68
2023/03/16 03:58:52;;;;;;;3.10;2.37;;;2.30;99.90;;;;;;5006046;28;20869;-68
2023/03/16 04:01:19;;;;;;;10.63;6.27;;;2.20;99.90;;;;;;5004905;28;20217;-68
2023/03/16 04:03:46;;;;;;;7.20;4.77;;;2.20;99.90;;;;;;5004667;28;20260;-68
2023/03/16 04:06:13;;;;;;;6.13;4.10;;;2.20;99.90;;;;;;5005696;28;20213;-68
2023/03/16 04:08:40;;;;;;;4.33;2.23;;;2.10;99.90;;;;;;5005092;28;20647;-69
2023/03/16 04:11:09;;;;;;;2.00;1.70;;;2.10;99.90;;;;;;5002485;28;20300;-69
2023/03/16 04:13:36;;;;;;;1.83;1.40;;;2.10;99.90;;;;;;5006058;28;20309;-69
2023/03/16 04:16:03;;;;;;;4.53;1.30;;;2.10;99.90;;;;;;5007604;28;20629;-69
2023/03/16 04:18:37;;;;;;;2.20;1.20;;;2.20;99.90;;;;;;5007627;28;20563;-69
2023/03/16 04:21:04;;;;;;;1.90;1.00;;;2.20;99.90;;;;;;5007957;28;20244;-69
2023/03/16 04:23:33;;;;;;;6.43;1.40;;;2.20;99.90;;;;;;5007663;28;20226;-69
2023/03/16 04:26:01;;;;;;;2.10;1.43;;;2.30;99.90;;;;;;5007805;28;20228;-69
2023/03/16 04:28:29;;;;;;;2.93;1.63;;;2.30;99.90;;;;;;5007106;28;20272;-69
2023/03/16 04:30:56;;;;;;;2.17;1.20;;;2.30;99.90;;;;;;5007885;28;20734;-69
2023/03/16 04:33:23;;;;;;;1.60;1.30;;;2.20;99.90;;;;;;5007911;28;20300;-69
2023/03/16 04:35:51;;;;;;;2.03;1.10;;;2.30;99.90;;;;;;5007105;28;20209;-68
2023/03/16 04:38:17;;;;;;;2.43;1.37;;;2.20;99.90;;;;;;5007422;28;20216;-69
2023/03/16 04:40:44;;;;;;;3.63;1.47;;;2.20;99.90;;;;;;5007558;28;20634;-69
2023/03/16 04:43:12;;;;;;;4.87;1.63;;;2.20;99.90;;;;;;5007308;28;20236;-69
2023/03/16 04:45:41;;;;;;;2.67;1.37;;;2.20;99.90;;;;;;5006591;28;20205;-69
2023/03/16 04:48:08;;;;;;;1.83;1.70;;;2.20;99.90;;;;;;5007228;28;20237;-69
2023/03/16 04:50:35;;;;;;;4.00;1.40;;;2.20;99.90;;;;;;5007617;28;20206;-69
2023/03/16 04:53:03;;;;;;;2.17;1.60;;;2.20;99.90;;;;;;5007519;28;20214;-69
2023/03/16 04:55:30;;;;;;;3.47;1.67;;;2.20;99.90;;;;;;5007113;28;20260;-69
2023/03/16 04:57:57;;;;;;;4.80;2.10;;;2.00;99.90;;;;;;5006973;28;20205;-68
2023/03/16 05:00:24;;;;;;;3.07;1.57;;;2.10;99.90;;;;;;5007402;28;20299;-69
2023/03/16 05:02:52;;;;;;;3.73;2.00;;;2.00;99.90;;;;;;5007402;28;20301;-69
2023/03/16 05:05:20;;;;;;;4.90;2.20;;;2.00;99.90;;;;;;5007243;28;20292;-69
2023/03/16 05:07:47;;;;;;;3.77;2.00;;;1.90;99.90;;;;;;5007233;28;20216;-68
2023/03/16 05:10:16;;;;;;;2.80;2.20;;;1.80;99.90;;;;;;5006908;28;20295;-69
2023/03/16 05:12:43;;;;;;;4.87;1.90;;;1.70;99.90;;;;;;5006637;28;20299;-68
2023/03/16 05:15:11;;;;;;;5.17;2.20;;;1.70;99.90;;;;;;5007115;28;20312;-68
2023/03/16 05:17:38;;;;;;;3.97;2.03;;;1.70;99.90;;;;;;5007027;28;20706;-68
2023/03/16 05:20:11;;;;;;;5.33;2.40;;;1.70;99.90;;;;;;5006908;28;20308;-69
2023/03/16 05:22:39;;;;;;;4.57;2.20;;;1.70;99.90;;;;;;5006626;28;20221;-69
2023/03/16 05:25:07;;;;;;;5.10;2.53;;;1.70;99.90;;;;;;5006855;28;20291;-69
2023/03/16 05:27:34;;;;;;;3.47;2.10;;;1.70;99.90;;;;;;5003590;28;20242;-68
2023/03/16 05:30:01;;;;;;;8.70;2.47;;;1.70;99.90;;;;;;5006566;28;20322;-68
2023/03/16 05:32:28;;;;;;;3.73;2.50;;;1.70;99.90;;;;;;5007135;28;20228;-68
2023/03/16 05:34:55;;;;;;;3.23;2.37;;;1.60;99.90;;;;;;5006844;28;20288;-69
2023/03/16 05:37:23;;;;;;;5.03;3.10;;;1.50;99.90;;;;;;5006673;28;20205;-68
2023/03/16 05:39:50;;;;;;;5.43;3.50;;;1.40;99.90;;;;;;5006487;28;20320;-69
2023/03/16 05:42:18;;;;;;;6.00;3.50;;;1.50;99.90;;;;;;5006715;28;20217;-69
2023/03/16 05:44:45;;;;;;;4.40;3.00;;;1.50;99.90;;;;;;5006659;28;20240;-69
2023/03/16 05:47:12;;;;;;;3.87;1.90;;;1.50;99.90;;;;;;5006394;28;20201;-69
2023/03/16 05:49:39;;;;;;;3.13;1.97;;;1.60;99.90;;;;;;5006682;28;20327;-69
2023/03/16 05:52:06;;;;;;;6.53;2.00;;;1.80;99.90;;;;;;5006819;28;20296;-69
2023/03/16 05:54:34;;;;;;;2.83;2.10;;;1.80;99.90;;;;;;5006590;28;20296;-68
2023/03/16 05:57:01;;;;;;;2.97;1.70;;;1.80;99.90;;;;;;5008421;28;20308;-68
2023/03/16 05:59:28;;;;;;;2.70;1.67;;;1.80;99.90;;;;;;5010396;28;20249;-68
2023/03/16 06:01:55;;;;;;;2.50;1.70;;;1.90;99.90;;;;;;5010744;28;20694;-69
2023/03/16 06:04:22;;;;;;;5.17;1.70;;;1.90;99.90;;;;;;5010638;28;20292;-69
2023/03/16 06:06:48;;;;;;;2.50;1.57;;;1.80;99.90;;;;;;5010282;28;20213;-69
2023/03/16 06:09:15;;;;;;;2.03;1.40;;;1.80;99.90;;;;;;5008772;28;20332;-68
2023/03/16 06:11:44;;;;;;;3.40;1.70;;;1.80;99.90;;;;;;5009032;28;20259;-69
2023/03/16 06:14:10;;;;;;;4.27;1.60;;;1.80;99.90;;;;;;5010351;28;20298;-69
2023/03/16 06:16:37;;;;;;;2.63;1.60;;;1.80;99.90;;;;;;5010373;28;20336;-69
2023/03/16 06:19:04;;;;;;;5.50;1.57;;;1.70;99.90;;;;;;5010537;28;20236;-69
2023/03/16 06:21:31;;;;;;;4.43;2.03;;;1.70;99.90;;;;;;5009998;28;20309;-68
2023/03/16 06:23:58;;;;;;;2.77;1.70;;;1.70;99.90;;;;;;5010251;28;20233;-68
2023/03/16 06:26:25;;;;;;;1.90;1.70;;;1.70;99.90;;;;;;5010210;28;20213;-69
2023/03/16 06:28:53;;;;;;;3.30;1.63;;;1.80;99.90;;;;;;5009647;28;20229;-69
2023/03/16 06:31:20;;;;;;;4.70;1.93;;;1.80;99.90;;;;;;5009873;28;20220;-69
2023/03/16 06:33:47;;;;;;;1.67;1.50;;;1.70;99.90;;;;;;5010042;28;20214;-68
2023/03/16 06:36:14;;;;;;;3.13;1.60;;;1.70;99.90;;;;;;5009963;28;20308;-69
2023/03/16 06:38:41;;;;;;;4.00;1.33;;;1.70;99.90;;;;;;5010035;28;20213;-69
2023/03/16 06:41:08;;;;;;;3.70;1.50;;;1.70;99.90;;;;;;5009798;28;20223;-69
2023/03/16 06:43:35;;;;;;;3.00;1.83;;;1.70;99.90;;;;;;5009609;28;20494;-69
2023/03/16 06:46:04;;;;;;;4.50;2.17;;;1.70;99.90;;;;;;5009973;28;20288;-68
2023/03/16 06:48:31;;;;;;;1.63;1.53;;;1.80;99.90;;;;;;5009267;28;20300;-68
2023/03/16 06:50:58;;;;;;;2.50;1.67;;;1.80;99.90;;;;;;5009562;28;20222;-68
2023/03/16 06:53:24;;;;;;;3.83;1.47;;;1.80;99.90;;;;;;5009436;28;20988;-69
2023/03/16 06:55:51;;;;;;;2.67;1.70;;;1.80;99.90;;;;;;5009405;28;20205;-68
2023/03/16 06:58:18;;;;;;;1.83;1.50;;;1.90;99.90;;;;;;5009513;28;20300;-69
2023/03/16 07:00:45;;;;;;;1.70;1.43;;;1.90;99.90;;;;;;5009216;28;20649;-69
2023/03/16 07:03:13;;;;;;;1.50;1.40;;;2.00;99.90;;;;;;5009757;28;20298;-68
2023/03/16 07:05:40;;;;;;;3.03;1.50;;;2.10;99.90;;;;;;5009210;28;20300;-68
2023/03/16 07:08:08;;;;;;;2.10;1.43;;;2.20;99.90;;;;;;5008416;28;20811;-68
2023/03/16 07:10:35;;;;;;;3.83;1.63;;;2.30;99.90;;;;;;5008879;28;20651;-69
2023/03/16 07:13:03;;;;;;;3.17;1.50;;;2.30;99.90;;;;;;4989428;28;20253;-69
2023/03/16 07:15:30;;;;;;;2.20;1.53;;;2.40;99.90;;;;;;4998233;28;20616;-69
2023/03/16 07:17:57;;;;;;;2.50;1.43;;;2.50;99.90;;;;;;5008760;28;20239;-69
2023/03/16 07:20:27;;;;;;;3.13;1.43;;;2.60;99.90;;;;;;5009156;28;20223;-69
2023/03/16 07:22:54;;;;;;;4.67;1.80;;;2.70;99.90;;;;;;5008809;28;20256;-69
2023/03/16 07:25:21;;;;;;;2.00;1.53;;;2.80;99.90;;;;;;5009131;28;20583;-66
2023/03/16 07:27:48;;;;;;;3.33;1.50;;;2.90;99.90;;;;;;5008762;28;20213;-67
2023/03/16 07:30:15;;;;;;;2.80;1.40;;;3.10;99.90;;;;;;5008853;28;20320;-70
2023/03/16 07:32:42;;;;;;;3.50;1.53;;;3.20;99.90;;;;;;5008519;28;20285;-69
2023/03/16 07:35:10;;;;;;;2.97;1.53;;;3.20;99.90;;;;;;5008564;28;20225;-69
2023/03/16 07:37:38;;;;;;;3.83;1.90;;;3.30;99.90;;;;;;5008490;28;20277;-69
2023/03/16 07:40:08;;;;;;;1.93;1.40;;;3.30;99.90;;;;;;5008831;28;20205;-69
2023/03/16 07:42:35;;;;;;;4.60;1.60;;;3.40;99.90;;;;;;5008273;28;20565;-69
2023/03/16 07:45:02;;;;;;;3.80;1.67;;;3.50;99.90;;;;;;5008561;28;20217;-69
2023/03/16 07:47:30;;;;;;;2.40;1.33;;;3.60;99.90;;;;;;5008236;28;20328;-69
2023/03/16 07:49:57;;;;;;;2.23;1.27;;;3.70;99.90;;;;;;5008333;28;20248;-69
2023/03/16 07:52:24;;;;;;;2.63;1.50;;;3.90;99.90;;;;;;5008424;28;20210;-69
2023/03/16 07:54:53;;;;;;;3.00;1.97;;;3.90;99.90;;;;;;5008250;28;20205;-69
2023/03/16 07:57:20;;;;;;;2.73;1.70;;;4.00;99.90;;;;;;5008290;28;20252;-69
2023/03/16 07:59:47;;;;;;;3.70;1.57;;;4.00;99.90;;;;;;5008198;28;20256;-69
2023/03/16 08:02:16;;;;;;;2.60;1.40;;;4.10;99.90;;;;;;5008223;28;20292;-67
2023/03/16 08:04:43;;;;;;;2.90;1.33;;;4.30;99.90;;;;;;5007945;28;20218;-67
2023/03/16 08:07:10;;;;;;;1.20;1.10;;;4.40;99.90;;;;;;5008208;28;20220;-67
2023/03/16 08:09:37;;;;;;;4.07;1.50;;;4.50;99.90;;;;;;5007581;28;20324;-67
2023/03/16 08:12:07;;;;;;;2.63;1.20;;;4.50;99.90;;;;;;5007794;28;20258;-67
2023/03/16 08:14:35;;;;;;;1.50;1.40;;;4.60;99.90;;;;;;5007286;28;20205;-67
2023/03/16 08:17:03;;;;;;;1.23;1.13;;;4.70;99.90;;;;;;5008106;28;20240;-67
2023/03/16 08:19:31;;;;;;;3.30;1.13;;;4.80;99.90;;;;;;5007753;28;20300;-67
2023/03/16 08:21:59;;;;;;;2.50;1.43;;;4.80;99.90;;;;;;5007990;28;20325;-67
2023/03/16 08:24:27;;;;;;;2.87;1.13;;;4.90;99.90;;;;;;5008001;28;20210;-67
2023/03/16 08:26:53;;;;;;;1.53;1.20;;;4.90;99.90;;;;;;5007739;28;20666;-67
2023/03/16 08:29:22;;;;;;;2.67;1.27;;;5.00;99.90;;;;;;5007420;28;20324;-67
2023/03/16 08:31:49;;;;;;;3.43;1.33;;;5.00;99.90;;;;;;5007795;28;20555;-69
2023/03/16 08:34:16;;;;;;;3.60;1.33;;;5.10;99.90;;;;;;5007531;28;20210;-67
2023/03/16 08:36:43;;;;;;;3.47;1.10;;;5.10;99.90;;;;;;5007445;28;20236;-67
2023/03/16 08:39:10;;;;;;;6.10;1.40;;;5.10;99.90;;;;;;5007477;28;20603;-66
2023/03/16 08:41:39;;;;;;;3.83;1.27;;;5.20;99.90;;;;;;5007507;28;20297;-67
2023/03/16 08:44:06;;;;;;;5.03;1.80;;;5.20;99.90;;;;;;5007178;28;20956;-67
2023/03/16 08:46:35;;;;;;;2.70;1.20;;;5.30;99.90;;;;;;5007234;28;20680;-67
2023/03/16 08:49:02;;;;;;;2.30;1.10;;;5.40;99.90;;;;;;5007412;28;20233;-67
2023/03/16 08:51:29;;;;;;;2.37;0.80;;;5.40;99.90;;;;;;5007071;28;20291;-67
2023/03/16 08:53:57;;;;;;;3.57;1.30;;;5.50;99.90;;;;;;5007531;28;20210;-67
2023/03/16 08:56:25;;;;;;;3.27;0.90;;;5.60;99.90;;;;;;5007482;28;20220;-68
2023/03/16 08:58:52;;;;;;;2.47;1.00;;;5.60;99.90;;;;;;5006871;28;20205;-68
2023/03/16 09:01:19;;;;;;;3.00;1.37;;;5.70;99.90;;;;;;5007150;28;20220;-68
2023/03/16 09:03:47;;;;;;;2.10;1.20;;;5.70;99.90;;;;;;5007032;28;20217;-68
2023/03/16 09:06:15;;;;;;;2.97;1.40;;;5.80;99.90;;;;;;5007158;28;20267;-68
2023/03/16 09:08:44;;;;;;;1.63;1.00;;;5.90;99.90;;;;;;5006335;28;20655;-68
2023/03/16 09:11:13;;;;;;;4.60;1.53;;;5.90;99.90;;;;;;5006927;28;20541;-68
2023/03/16 09:13:41;;;;;;;4.37;1.57;;;6.00;99.90;;;;;;5006319;28;20214;-68
2023/03/16 09:16:10;;;;;;;5.03;1.20;;;6.10;99.90;;;;;;5006757;28;20240;-68
2023/03/16 09:18:39;;;;;;;5.57;1.70;;;6.10;99.90;;;;;;5006740;28;20627;-68
2023/03/16 09:21:11;;;;;;;3.47;1.50;;;6.10;99.90;;;;;;5006802;28;20680;-68
2023/03/16 09:23:40;;;;;;;1.27;0.97;;;6.20;99.90;;;;;;5006810;28;20244;-68
2023/03/16 09:26:07;;;;;;;4.53;1.57;;;6.20;99.90;;;;;;5006923;28;20618;-68
2023/03/16 09:28:37;;;;;;;3.03;1.33;;;6.30;99.90;;;;;;5006094;28;20782;-68
2023/03/16 09:31:05;;;;;;;3.23;1.37;;;6.30;99.90;;;;;;5008273;28;20236;-68
2023/03/16 09:33:32;;;;;;;2.80;1.10;;;6.30;99.90;;;;;;5013107;28;20612;-68
2023/03/16 09:36:00;;;;;;;3.57;1.50;;;6.40;99.90;;;;;;5013326;28;20285;-68
2023/03/16 09:38:29;;;;;;;2.33;0.93;;;6.40;99.90;;;;;;5013600;28;20248;-68
2023/03/16 09:40:59;;;;;;;4.87;1.20;;;6.40;99.90;;;;;;5012827;28;20303;-68
2023/03/16 09:44:00;;;;;;;2.40;1.10;;;6.50;99.90;;;;;;5013299;28;20197;-68
2023/03/16 09:46:30;;;;;;;3.70;1.30;;;6.60;99.90;;;;;;5013426;28;20431;-68
2023/03/16 09:48:58;;;;;;;1.77;1.13;;;6.70;99.90;;;;;;5013058;28;20201;-68
2023/03/16 09:51:36;;;;;;;2.93;0.80;;;6.80;99.90;;;;;;5013349;28;20229;-68
2023/03/16 09:54:17;;;;;;;1.83;0.90;;;7.00;99.90;;;;;;5013059;28;20747;-68
2023/03/16 09:57:03;;;;;;;2.60;1.07;;;7.00;99.90;;;;;;5013320;28;20197;-68
2023/03/16 10:06:15;;;;;;;3.00;1.20;;;7.20;99.90;;;;;;4993710;28;20569;-68
2023/03/16 10:08:45;;;;;;;2.60;1.33;;;7.30;99.90;;;;;;5012001;28;20205;-68
2023/03/16 10:11:24;;;;;;;3.00;1.30;;;7.40;99.90;;;;;;5012754;28;21069;-68
2023/03/16 10:13:55;;;;;;;3.47;1.03;;;7.40;99.90;;;;;;5012984;28;20194;-68
2023/03/16 10:16:26;;;;;;;3.97;1.70;;;7.50;99.90;;;;;;5013299;28;20197;-68
2023/03/16 10:19:00;;;;;;;4.03;1.33;;;7.50;99.90;;;;;;5013139;28;20216;-68
2023/03/16 10:21:28;;;;;;;2.43;1.00;;;7.60;99.90;;;;;;5013297;28;20197;-68
2023/03/16 10:24:01;;;;;;;2.20;1.00;;;7.60;99.90;;;;;;5013135;28;20212;-68
2023/03/16 10:26:37;;;;;;;2.53;1.03;;;7.60;99.90;;;;;;5013281;28;20194;-69
2023/03/16 10:29:06;;;;;;;1.40;1.00;;;7.70;99.90;;;;;;5012332;28;20194;-69
2023/03/16 10:31:44;;;;;;;3.23;1.10;;;7.80;99.90;;;;;;5012521;28;20711;-69
2023/03/16 10:34:11;;;;;;;2.30;1.37;;;7.90;99.90;;;;;;5012888;28;20725;-70
2023/03/16 10:36:43;;;;;;;1.63;1.23;;;7.90;99.90;;;;;;5012553;28;20216;-70
2023/03/16 10:39:12;;;;;;;3.53;1.67;;;8.00;99.90;;;;;;5013083;28;20301;-70
2023/03/16 10:41:44;;;;;;;3.10;1.53;;;8.10;99.90;;;;;;5011248;28;20307;-69
2023/03/16 10:44:13;;;;;;;3.47;1.30;;;8.20;99.90;;;;;;5008579;28;20264;-69
2023/03/16 10:46:44;;;;;;;2.93;1.33;;;8.20;99.90;;;;;;5009766;28;20577;-69
2023/03/16 10:49:24;;;;;;;2.47;1.20;;;8.30;99.90;;;;;;5009509;28;20289;-69
2023/03/16 10:51:53;;;;;;;3.90;1.07;;;8.40;99.90;;;;;;5009276;28;20601;-70
2023/03/16 10:54:28;;;;;;;1.83;1.07;;;8.50;99.90;;;;;;5009855;28;20210;-70
2023/03/16 10:56:56;;;;;;;2.47;1.03;;;8.60;99.90;;;;;;5009544;28;20557;-70
2023/03/16 10:59:30;;;;;;;1.97;0.80;;;8.60;99.90;;;;;;5009401;28;20205;-70
2023/03/16 11:01:58;;;;;;;1.90;0.90;;;8.70;99.90;;;;;;4989634;28;20688;-70
2023/03/16 11:04:25;;;;;;;0.93;0.73;;;8.80;99.90;;;;;;4989814;28;20206;-70
2023/03/16 11:06:55;;;;;;;1.77;1.13;;;8.90;99.90;;;;;;4993395;28;20248;-70
2023/03/16 11:09:26;;;;;;;1.87;0.97;;;9.00;99.90;;;;;;5008647;28;20775;-70
2023/03/16 11:11:53;;;;;;;1.73;1.10;;;9.00;99.60;;;;;;5008572;28;20320;-70
2023/03/16 11:14:25;;;;;;;1.20;0.80;;;9.10;98.40;;;;;;5008961;28;20213;-70
2023/03/16 11:17:01;;;;;;;1.30;1.00;;;9.20;97.20;;;;;;5008757;28;20296;-70
2023/03/16 11:19:31;;;;;;;1.60;1.10;;;9.30;97.60;;;;;;4997480;28;20711;-70
2023/03/16 11:22:02;;;;;;;2.37;0.97;;;9.40;98.30;;;;;;4989566;28;20242;-70
2023/03/16 11:24:38;;;;;;;3.63;1.40;;;9.50;98.20;;;;;;4989554;28;20301;-70
2023/03/16 11:27:11;;;;;;;2.33;1.37;;;9.70;98.00;;;;;;4989497;28;20301;-70
2023/03/16 11:29:52;;;;;;;2.30;1.20;;;9.80;98.60;;;;;;4988788;28;20272;-70
2023/03/16 11:32:23;;;;;;;2.50;0.90;;;9.90;98.20;;;;;;4989459;28;20257;-70
2023/03/16 11:34:52;;;;;;;1.67;1.17;;;9.90;99.00;;;;;;5002910;28;20736;-70
2023/03/16 11:37:35;;;;;;;2.20;1.07;;;10.00;99.70;;;;;;5008200;28;20619;-70
2023/03/16 11:40:15;;;;;;;2.73;1.27;;;10.00;98.80;;;;;;5008699;28;20244;-70
2023/03/16 11:42:54;;;;;;;1.83;1.10;;;10.10;97.70;;;;;;5008374;28;20216;-70
2023/03/16 11:45:31;;;;;;;1.80;1.20;;;10.20;97.50;;;;;;5008297;28;20288;-70
2023/03/16 11:48:14;;;;;;;1.13;0.90;;;10.30;97.60;;;;;;5008492;28;20497;-70
2023/03/16 11:50:58;;;;;;;2.23;1.03;;;10.30;97.40;;;;;;5008001;28;20718;-70
2023/03/16 11:53:35;;;;;;;3.80;1.30;;;10.30;96.20;;;;;;5008607;28;20272;-70
2023/03/16 11:56:12;;;;;;;1.93;0.80;;;10.40;96.10;;;;;;5008212;28;20875;-70
2023/03/16 11:58:56;;;;;;;2.20;0.90;;;10.40;94.70;;;;;;5008240;28;20288;-70
2023/03/16 12:01:33;;;;;;;2.43;0.80;;;10.40;95.20;;;;;;5008231;28;20205;-70
2023/03/16 12:04:22;;;;;;;1.80;1.07;;;10.50;93.50;;;;;;5008341;28;20225;-70
2023/03/16 12:07:04;;;;;;;1.43;1.07;;;10.50;93.90;;;;;;5008079;28;20260;-70
2023/03/16 12:10:03;;;;;;;1.23;0.70;;;10.60;94.40;;;;;;5007893;28;20275;-70
2023/03/16 12:12:41;;;;;;;2.30;0.80;;;10.80;94.10;;;;;;5007912;28;20229;-70
2023/03/16 12:15:34;;;;;;;2.47;0.90;;;10.90;94.50;;;;;;5008160;28;20215;-70
2023/03/16 12:18:10;;;;;;;2.47;0.80;;;11.00;94.60;;;;;;5008147;28;20228;-70
2023/03/16 12:20:43;;;;;;;1.67;0.90;;;11.10;94.90;;;;;;5008074;28;20279;-70
2023/03/16 12:23:14;;;;;;;1.77;0.80;;;11.10;94.40;;;;;;5008216;28;20245;-70
2023/03/16 12:25:46;;;;;;;1.97;1.03;;;11.00;94.10;;;;;;5008012;28;20582;-70
2023/03/16 12:28:20;;;;;;;1.93;1.20;;;11.10;94.10;;;;;;5007677;28;20650;-70
2023/03/16 12:30:58;;;;;;;2.07;1.10;;;11.10;94.80;;;;;;5007771;28;20220;-70
2023/03/16 12:33:36;;;;;;;1.03;0.80;;;11.20;94.80;;;;;;5008249;28;20224;-70
2023/03/16 12:36:20;;;;;;;2.30;0.90;;;11.40;94.60;;;;;;5007782;28;20229;-70
2023/03/16 12:38:52;;;;;;;1.57;0.80;;;11.60;94.40;;;;;;5007731;28;20207;-70
2023/03/16 12:41:26;;;;;;;1.47;0.90;;;11.50;91.60;;;;;;5008009;28;20215;-70
2023/03/16 12:44:07;;;;;;;1.37;1.03;;;11.60;91.70;;;;;;5007442;28;20251;-70
2023/03/16 12:46:45;;;;;;;1.83;0.90;;;11.70;90.40;;;;;;5007717;28;20201;-70
2023/03/16 12:49:14;;;;;;;1.00;0.90;;;11.70;91.50;;;;;;5007574;28;20197;-70
2023/03/16 12:51:42;;;;;;;2.33;1.10;;;11.70;92.40;;;;;;5007114;28;20252;-70
2023/03/16 12:54:19;;;;;;;2.80;1.00;;;11.80;91.30;;;;;;5007506;28;20308;-70
2023/03/16 12:56:49;;;;;;;1.43;0.67;;;11.90;89.60;;;;;;5007379;28;20296;-70
2023/03/16 12:59:19;;;;;;;1.77;0.90;;;12.00;89.20;;;;;;5006821;28;20209;-70
2023/03/16 13:01:50;;;;;;;2.03;1.10;;;12.00;90.20;;;;;;5007257;28;20201;-69
2023/03/16 13:04:22;;;;;;;1.10;0.80;;;12.20;90.10;;;;;;5007404;28;20209;-70
2023/03/16 13:06:52;;;;;;;6.43;1.17;;;12.30;89.20;;;;;;5006453;28;20201;-70
2023/03/16 13:09:24;;;;;;;1.27;1.10;;;12.40;85.10;;;;;;5007191;28;20290;-70
2023/03/16 13:11:52;;;;;;;0.63;0.53;;;12.40;86.30;;;;;;4997515;28;20280;-70
2023/03/16 13:14:39;;;;;;;2.67;0.90;;;12.50;84.90;;;;;;4987200;28;20555;-70